createdAt,value
2023-03-19T00:00:32.831Z,75.71
2023-03-19T00:03:19.827Z,75.39
2023-03-19T00:05:53.943Z,75.58
2023-03-19T00:08:21.589Z,75.67
2023-03-19T00:10:49.221Z,75.54
2023-03-19T00:13:16.249Z,75.32
2023-03-19T00:15:43.509Z,75.49
2023-03-19T00:18:10.475Z,74.93
2023-03-19T00:20:37.681Z,75.12
2023-03-19T00:23:04.675Z,74.78
2023-03-19T00:25:32.626Z,74.29
2023-03-19T00:27:59.622Z,73.47
2023-03-19T00:30:27.312Z,72.48
2023-03-19T00:32:54.322Z,71.66
2023-03-19T00:35:21.633Z,70.70
2023-03-19T00:37:48.555Z,70.06
2023-03-19T00:40:15.825Z,69.04
2023-03-19T00:42:44.885Z,68.83
2023-03-19T00:45:13.292Z,68.04
2023-03-19T00:47:40.560Z,67.78
2023-03-19T00:50:08.453Z,67.13
2023-03-19T00:52:35.421Z,66.62
2023-03-19T00:55:02.612Z,66.27
2023-03-19T00:57:29.589Z,65.71
2023-03-19T00:59:56.790Z,65.43
2023-03-19T01:02:26.117Z,64.96
2023-03-19T01:04:53.349Z,64.90
2023-03-19T01:07:21.437Z,65.08
2023-03-19T01:09:48.637Z,65.12
2023-03-19T01:12:15.661Z,65.07
2023-03-19T01:14:42.795Z,65.23
2023-03-19T01:17:09.984Z,64.90
2023-03-19T01:19:37.540Z,64.87
2023-03-19T01:22:04.652Z,65.30
2023-03-19T01:24:32.402Z,65.72
2023-03-19T01:26:59.305Z,67.29
2023-03-19T01:29:26.580Z,67.83
2023-03-19T01:31:53.509Z,66.43
2023-03-19T01:34:21.106Z,65.94
2023-03-19T01:36:49.109Z,65.46
2023-03-19T01:39:16.360Z,64.16
2023-03-19T01:41:43.253Z,62.67
2023-03-19T01:44:31.708Z,60.21
2023-03-19T01:47:01.620Z,59.10
2023-03-19T01:49:30.686Z,58.01
2023-03-19T01:52:01.040Z,57.27
2023-03-19T01:54:30.625Z,56.86
2023-03-19T01:57:11.584Z,56.03
2023-03-19T01:59:43.964Z,55.80
2023-03-19T02:02:30.616Z,55.42
2023-03-19T02:05:10.818Z,55.20
2023-03-19T02:07:39.745Z,55.15
2023-03-19T02:10:12.088Z,55.01
2023-03-19T02:12:39.023Z,54.74
2023-03-19T02:15:07.340Z,54.96
2023-03-19T02:17:34.586Z,55.17
2023-03-19T02:20:05.271Z,54.98
2023-03-19T02:22:32.936Z,55.12
2023-03-19T02:25:08.505Z,54.88
2023-03-19T02:27:35.740Z,54.86
2023-03-19T02:30:22.921Z,54.98
2023-03-19T02:32:49.822Z,55.15
2023-03-19T02:35:17.073Z,55.10
2023-03-19T02:37:43.909Z,55.37
2023-03-19T02:40:23.270Z,54.96
2023-03-19T02:42:50.385Z,55.52
2023-03-19T02:45:18.302Z,54.96
2023-03-19T02:47:45.294Z,55.47
2023-03-19T02:50:13.021Z,55.21
2023-03-19T02:52:40.022Z,55.67
2023-03-19T02:55:08.068Z,55.27
2023-03-19T02:57:35.076Z,55.46
2023-03-19T03:00:02.819Z,55.73
2023-03-19T03:02:29.928Z,56.19
2023-03-19T03:04:57.109Z,56.57
2023-03-19T03:07:24.050Z,56.82
2023-03-19T03:09:51.229Z,56.71
2023-03-19T03:12:18.193Z,57.10
2023-03-19T03:14:45.988Z,56.49
2023-03-19T03:17:13.532Z,56.76
2023-03-19T03:19:40.741Z,56.80
2023-03-19T03:22:08.108Z,56.80
2023-03-19T03:24:35.404Z,57.14
2023-03-19T03:27:02.295Z,57.24
2023-03-19T03:29:29.609Z,57.18
2023-03-19T03:31:56.659Z,57.09
2023-03-19T03:34:23.832Z,57.41
2023-03-19T03:36:50.944Z,57.32
2023-03-19T03:39:19.170Z,57.46
2023-03-19T03:41:46.559Z,57.37
2023-03-19T03:44:13.688Z,56.78
2023-03-19T03:46:40.801Z,56.92
2023-03-19T03:49:07.970Z,56.63
2023-03-19T03:51:34.917Z,57.22
2023-03-19T03:54:02.298Z,57.28
2023-03-19T03:56:29.253Z,57.27
2023-03-19T03:58:56.661Z,57.50
2023-03-19T04:01:23.625Z,58.80
2023-03-19T04:03:51.186Z,59.56
2023-03-19T04:06:20.821Z,59.34
2023-03-19T04:08:48.289Z,59.80
2023-03-19T04:11:15.320Z,60.27
2023-03-19T04:13:42.525Z,59.85
2023-03-19T04:16:11.203Z,59.90
2023-03-19T04:18:39.005Z,59.93
2023-03-19T04:21:06.594Z,60.25
2023-03-19T04:23:34.052Z,59.94
2023-03-19T04:26:03.440Z,59.98
2023-03-19T04:28:31.379Z,62.06
2023-03-19T04:31:07.011Z,63.17
2023-03-19T04:33:35.728Z,63.40
2023-03-19T04:36:03.861Z,63.24
2023-03-19T04:38:32.021Z,63.45
2023-03-19T04:40:59.025Z,64.44
2023-03-19T04:43:26.264Z,65.46
2023-03-19T04:45:53.298Z,65.30
2023-03-19T04:48:20.781Z,65.84
2023-03-19T04:50:48.313Z,65.82
2023-03-19T04:53:16.045Z,66.73
2023-03-19T04:55:42.983Z,67.77
2023-03-19T04:58:11.020Z,68.26
2023-03-19T05:00:38.359Z,69.14
2023-03-19T05:03:05.582Z,69.17
2023-03-19T05:05:32.563Z,70.08
2023-03-19T05:07:59.845Z,71.17
2023-03-19T05:10:26.800Z,71.45
2023-03-19T05:12:54.103Z,69.62
2023-03-19T05:15:21.048Z,70.24
2023-03-19T05:17:48.853Z,69.32
2023-03-19T05:20:16.015Z,68.16
2023-03-19T05:22:43.270Z,67.80
2023-03-19T05:25:10.196Z,63.79
2023-03-19T05:27:37.417Z,61.89
2023-03-19T05:30:06.158Z,58.79
2023-03-19T05:32:34.085Z,56.48
2023-03-19T05:35:01.050Z,53.77
2023-03-19T05:37:28.279Z,51.96
2023-03-19T05:39:55.512Z,50.37
2023-03-19T05:42:22.654Z,48.41
2023-03-19T05:44:49.564Z,48.01
2023-03-19T05:47:16.792Z,46.75
2023-03-19T05:49:43.633Z,47.17
2023-03-19T05:52:11.255Z,46.92
2023-03-19T05:54:38.204Z,44.36
2023-03-19T05:57:05.436Z,42.03
2023-03-19T05:59:32.457Z,40.31
2023-03-19T06:01:59.919Z,37.75
2023-03-19T06:04:27.374Z,34.96
2023-03-19T06:06:54.655Z,32.39
2023-03-19T06:09:21.585Z,33.48
2023-03-19T06:11:50.039Z,32.58
2023-03-19T06:14:17.050Z,31.39
2023-03-19T06:16:44.330Z,31.31
2023-03-19T06:19:11.437Z,29.64
2023-03-19T06:21:38.658Z,28.93
2023-03-19T06:24:06.644Z,28.42
2023-03-19T06:26:34.546Z,28.28
2023-03-19T06:29:01.527Z,28.82
2023-03-19T06:31:28.907Z,29.15
2023-03-19T06:33:56.533Z,29.83
2023-03-19T06:36:23.933Z,29.77
2023-03-19T06:38:51.278Z,31.61
2023-03-19T06:41:18.542Z,31.78
2023-03-19T06:43:45.519Z,32.14
2023-03-19T06:46:13.128Z,32.46
2023-03-19T06:48:40.125Z,32.37
2023-03-19T06:51:07.357Z,32.26
2023-03-19T06:53:34.740Z,32.24
2023-03-19T06:56:01.928Z,33.08
2023-03-19T06:58:28.945Z,33.48
2023-03-19T07:00:56.915Z,33.31
2023-03-19T07:03:24.337Z,33.40
2023-03-19T07:05:52.037Z,33.73
2023-03-19T07:08:19.224Z,34.03
2023-03-19T07:10:46.471Z,33.74
2023-03-19T07:13:13.447Z,33.13
2023-03-19T07:15:40.707Z,33.96
2023-03-19T07:18:07.594Z,32.63
2023-03-19T07:20:35.119Z,31.81
2023-03-19T07:23:02.248Z,31.60
2023-03-19T07:25:29.451Z,31.00
2023-03-19T07:27:56.422Z,31.02
2023-03-19T07:30:24.423Z,31.21
2023-03-19T07:32:51.576Z,31.27
2023-03-19T07:35:18.986Z,31.64
2023-03-19T07:37:46.070Z,30.79
2023-03-19T07:40:14.218Z,31.22
2023-03-19T07:42:42.307Z,30.40
2023-03-19T07:45:10.896Z,33.10
2023-03-19T07:47:37.806Z,31.97
2023-03-19T07:50:05.416Z,31.99
2023-03-19T07:52:32.376Z,31.96
2023-03-19T07:54:59.555Z,31.96
2023-03-19T07:57:27.265Z,32.40
2023-03-19T07:59:54.471Z,32.45
2023-03-19T08:02:23.309Z,32.66
2023-03-19T08:04:51.338Z,31.46
2023-03-19T08:07:18.348Z,32.08
2023-03-19T08:09:45.530Z,32.63
2023-03-19T08:12:13.417Z,32.00
2023-03-19T08:14:40.779Z,31.66
2023-03-19T08:17:08.335Z,32.28
2023-03-19T08:19:35.642Z,32.95
2023-03-19T08:22:02.603Z,33.11
2023-03-19T08:24:29.832Z,33.12
2023-03-19T08:26:56.861Z,32.45
2023-03-19T08:29:26.422Z,30.97
2023-03-19T08:31:54.614Z,31.23
2023-03-19T08:34:22.044Z,31.02
2023-03-19T08:36:49.347Z,30.86
2023-03-19T08:39:16.647Z,29.98
2023-03-19T08:41:43.880Z,29.68
2023-03-19T08:44:11.052Z,29.38
2023-03-19T08:46:38.401Z,29.53
2023-03-19T08:49:05.740Z,28.45
2023-03-19T08:51:32.921Z,28.14
2023-03-19T08:53:59.852Z,29.35
2023-03-19T08:56:27.105Z,30.10
2023-03-19T08:58:57.118Z,29.02
2023-03-19T09:01:24.756Z,28.90
2023-03-19T09:03:51.753Z,29.45
2023-03-19T09:06:19.004Z,29.18
2023-03-19T09:08:46.379Z,28.62
2023-03-19T09:11:14.687Z,29.58
2023-03-19T09:13:41.869Z,29.70
2023-03-19T09:16:09.370Z,27.34
2023-03-19T09:18:36.386Z,28.54
2023-03-19T09:21:03.933Z,28.97
2023-03-19T09:23:30.856Z,27.45
2023-03-19T09:25:58.089Z,28.10
2023-03-19T09:28:25.768Z,27.79
2023-03-19T09:30:53.653Z,28.05
2023-03-19T09:33:21.571Z,27.41
2023-03-19T09:35:53.913Z,26.55
2023-03-19T09:38:22.495Z,26.65
2023-03-19T09:41:09.955Z,26.98
2023-03-19T09:43:49.507Z,27.75
2023-03-19T09:46:22.636Z,28.14
2023-03-19T09:49:16.589Z,28.58
2023-03-19T09:51:48.995Z,28.79
2023-03-19T09:54:42.823Z,29.07
2023-03-19T09:57:14.480Z,29.09
2023-03-19T09:59:42.176Z,28.17
2023-03-19T10:02:18.716Z,27.49
2023-03-19T10:05:07.891Z,27.17
2023-03-19T10:07:40.908Z,27.06
2023-03-19T10:10:44.728Z,26.39
2023-03-19T10:13:34.276Z,26.33
2023-03-19T10:16:03.675Z,27.56
2023-03-19T10:18:39.520Z,26.62
2023-03-19T10:21:18.746Z,26.90
2023-03-19T10:23:50.845Z,26.44
2023-03-19T10:26:21.667Z,25.44
2023-03-19T10:29:09.353Z,26.33
2023-03-19T10:31:55.107Z,25.69
2023-03-19T10:34:34.881Z,24.08
2023-03-19T10:37:30.229Z,24.53
2023-03-19T10:40:00.354Z,24.15
2023-03-19T10:42:31.977Z,24.15
2023-03-19T10:45:06.337Z,23.85
2023-03-19T10:47:40.059Z,23.17
2023-03-19T10:50:15.009Z,23.49
2023-03-19T10:52:43.664Z,23.39
2023-03-19T10:55:17.940Z,23.41
2023-03-19T10:57:50.272Z,23.35
2023-03-19T11:00:24.456Z,24.97
2023-03-19T11:02:56.275Z,24.17
2023-03-19T11:05:26.996Z,23.25
2023-03-19T11:08:35.018Z,22.70
2023-03-19T11:11:02.704Z,24.77
2023-03-19T11:13:30.392Z,24.46
2023-03-19T11:16:00.958Z,23.44
2023-03-19T11:18:31.836Z,24.97
2023-03-19T11:23:32.236Z,24.54
2023-03-19T11:26:01.937Z,23.93
2023-03-19T11:28:33.692Z,24.50
2023-03-19T11:31:27.305Z,23.54
2023-03-19T11:34:21.410Z,23.61
2023-03-19T11:36:57.006Z,22.26
2023-03-19T11:39:45.936Z,22.19
2023-03-19T11:42:51.381Z,22.99
2023-03-19T11:45:26.892Z,23.51
2023-03-19T11:48:12.559Z,22.85
2023-03-19T11:50:53.448Z,21.43
2023-03-19T11:53:27.728Z,22.74
2023-03-19T11:56:21.051Z,21.69
2023-03-19T11:59:06.004Z,20.93
2023-03-19T12:01:39.414Z,22.88
2023-03-19T12:05:00.314Z,22.83
2023-03-19T12:07:54.986Z,21.95
2023-03-19T12:10:27.903Z,24.56
2023-03-19T12:13:08.476Z,22.50
2023-03-19T12:16:01.731Z,22.36
2023-03-19T12:18:34.306Z,22.90
2023-03-19T12:21:04.615Z,23.80
2023-03-19T12:24:04.192Z,22.11
2023-03-19T12:26:34.213Z,23.13
2023-03-19T12:29:15.293Z,23.27
2023-03-19T12:31:52.701Z,22.41
2023-03-19T12:34:34.300Z,22.30
2023-03-19T12:37:21.515Z,21.35
2023-03-19T12:39:57.843Z,22.44
2023-03-19T12:42:31.588Z,22.61
2023-03-19T12:45:01.191Z,22.30
2023-03-19T12:47:36.660Z,23.36
2023-03-19T12:50:09.720Z,22.18
2023-03-19T12:52:39.941Z,22.74
2023-03-19T12:55:12.794Z,22.78
2023-03-19T12:57:46.341Z,23.60
2023-03-19T13:00:36.080Z,23.27
2023-03-19T13:03:40.984Z,23.25
2023-03-19T13:06:23.411Z,22.86
2023-03-19T13:09:07.527Z,22.70
2023-03-19T13:11:40.449Z,22.55
2023-03-19T13:14:07.819Z,22.17
2023-03-19T13:16:53.087Z,22.18
2023-03-19T13:19:52.765Z,22.05
2023-03-19T13:22:29.083Z,23.12
2023-03-19T13:24:58.412Z,23.85
2023-03-19T13:27:30.823Z,24.20
2023-03-19T13:30:06.847Z,23.94
2023-03-19T13:32:40.225Z,23.08
2023-03-19T13:35:33.722Z,24.62
2023-03-19T13:38:21.968Z,23.43
2023-03-19T13:40:57.693Z,23.64
2023-03-19T13:43:43.145Z,24.13
2023-03-19T13:46:12.845Z,23.98
2023-03-19T13:48:45.585Z,24.22
2023-03-19T13:51:12.664Z,24.34
2023-03-19T13:53:42.699Z,24.53
2023-03-19T13:56:28.638Z,24.72
2023-03-19T13:59:15.019Z,25.45
2023-03-19T14:01:45.263Z,26.84
2023-03-19T14:04:18.607Z,26.12
2023-03-19T14:06:49.402Z,27.09
2023-03-19T14:09:43.135Z,26.73
2023-03-19T14:12:23.608Z,27.27
2023-03-19T14:14:58.329Z,26.51
2023-03-19T14:17:31.200Z,25.46
2023-03-19T14:20:08.897Z,25.88
2023-03-19T14:22:56.625Z,27.43
2023-03-19T14:25:29.231Z,26.96
2023-03-19T14:28:23.155Z,26.90
2023-03-19T14:30:50.973Z,26.62
2023-03-19T14:33:22.997Z,27.62
2023-03-19T14:35:50.532Z,27.21
2023-03-19T14:38:40.921Z,27.87
2023-03-19T14:41:17.217Z,28.38
2023-03-19T14:43:59.618Z,27.11
2023-03-19T14:46:33.111Z,27.48
2023-03-19T14:49:21.511Z,27.05
2023-03-19T14:52:19.710Z,27.15
2023-03-19T14:55:02.509Z,26.88
2023-03-19T14:57:34.951Z,27.48
2023-03-19T15:00:07.154Z,27.71
2023-03-19T15:02:41.293Z,27.46
2023-03-19T15:05:33.986Z,27.69
2023-03-19T15:08:04.505Z,27.87
2023-03-19T15:10:45.648Z,28.03
2023-03-19T15:13:27.125Z,27.65
2023-03-19T15:16:09.744Z,28.00
2023-03-19T15:18:38.013Z,28.19
2023-03-19T15:21:06.235Z,28.54
2023-03-19T15:23:33.882Z,28.29
2023-03-19T15:26:03.316Z,28.57
2023-03-19T15:28:44.762Z,28.49
2023-03-19T15:31:29.900Z,28.83
2023-03-19T15:34:00.242Z,28.75
2023-03-19T15:36:30.932Z,29.39
2023-03-19T15:39:02.948Z,29.81
2023-03-19T15:41:33.107Z,29.92
2023-03-19T15:44:04.975Z,30.37
2023-03-19T15:46:36.544Z,29.68
2023-03-19T15:49:10.645Z,30.35
2023-03-19T15:51:39.899Z,30.26
2023-03-19T15:54:07.976Z,30.62
2023-03-19T15:56:35.493Z,30.88
2023-03-19T15:59:04.293Z,31.22
2023-03-19T16:01:33.412Z,31.60
2023-03-19T16:04:04.697Z,31.98
2023-03-19T16:06:36.536Z,32.20
2023-03-19T16:09:34.041Z,32.66
2023-03-19T16:12:01.857Z,32.83
2023-03-19T16:14:42.188Z,33.08
2023-03-19T16:17:20.394Z,33.72
2023-03-19T16:19:50.476Z,33.85
2023-03-19T16:22:22.529Z,34.00
2023-03-19T16:24:51.071Z,34.81
2023-03-19T16:27:25.942Z,34.74
2023-03-19T16:30:19.699Z,35.03
2023-03-19T16:33:03.924Z,35.18
2023-03-19T16:35:33.475Z,35.75
2023-03-19T16:38:24.296Z,36.12
2023-03-19T16:41:13.863Z,36.75
2023-03-19T16:43:45.987Z,37.15
2023-03-19T16:46:16.699Z,37.99
2023-03-19T16:48:44.020Z,39.03
2023-03-19T16:51:18.448Z,39.36
2023-03-19T16:53:46.331Z,40.08
2023-03-19T16:56:15.633Z,40.69
2023-03-19T16:58:46.651Z,40.84
2023-03-19T17:01:19.964Z,40.76
2023-03-19T17:03:47.854Z,41.35
2023-03-19T17:06:16.025Z,41.39
2023-03-19T17:08:43.653Z,41.79
2023-03-19T17:11:30.930Z,43.11
2023-03-19T17:13:59.363Z,43.73
2023-03-19T17:16:28.148Z,44.22
2023-03-19T17:18:56.682Z,43.91
2023-03-19T17:21:31.279Z,44.65
2023-03-19T17:24:02.757Z,45.21
2023-03-19T17:26:29.868Z,48.16
2023-03-19T17:28:57.177Z,49.57
2023-03-19T17:31:32.316Z,50.50
2023-03-19T17:34:13.206Z,50.66
2023-03-19T17:36:40.749Z,52.49
2023-03-19T17:39:11.316Z,54.26
2023-03-19T17:41:38.169Z,55.05
2023-03-19T17:44:06.671Z,57.15
2023-03-19T17:46:38.757Z,57.49
2023-03-19T17:49:07.378Z,58.57
2023-03-19T17:51:34.418Z,59.90
2023-03-19T17:54:01.703Z,61.09
2023-03-19T17:56:28.641Z,62.23
2023-03-19T17:58:55.802Z,63.15
2023-03-19T18:01:27.324Z,63.38
2023-03-19T18:03:56.345Z,64.62
2023-03-19T18:06:25.843Z,66.22
2023-03-19T18:08:52.993Z,66.81
2023-03-19T18:11:20.237Z,68.02
2023-03-19T18:13:47.370Z,67.62
2023-03-19T18:16:24.945Z,68.23
2023-03-19T18:18:53.036Z,69.98
2023-03-19T18:21:19.997Z,69.76
2023-03-19T18:23:47.265Z,69.80
2023-03-19T18:26:14.215Z,70.87
2023-03-19T18:28:41.408Z,71.56
2023-03-19T18:31:20.443Z,72.41
2023-03-19T18:33:53.838Z,72.83
2023-03-19T18:36:26.874Z,73.25
2023-03-19T18:38:55.362Z,74.18
2023-03-19T18:41:24.092Z,74.25
2023-03-19T18:43:51.420Z,74.98
2023-03-19T18:46:26.241Z,75.92
2023-03-19T18:49:05.881Z,76.21
2023-03-19T18:51:33.044Z,76.12
2023-03-19T18:54:00.678Z,76.50
2023-03-19T18:56:31.189Z,77.12
2023-03-19T18:58:59.391Z,77.03
2023-03-19T19:01:27.403Z,77.21
2023-03-19T19:03:55.123Z,77.14
2023-03-19T19:06:40.066Z,78.32
2023-03-19T19:09:13.834Z,78.48
2023-03-19T19:11:44.568Z,79.88
2023-03-19T19:14:19.372Z,81.42
2023-03-19T19:16:47.037Z,82.21
2023-03-19T19:19:23.319Z,82.10
2023-03-19T19:21:50.972Z,82.27
2023-03-19T19:24:18.310Z,82.17
2023-03-19T19:26:46.722Z,82.62
2023-03-19T19:29:23.905Z,82.66
2023-03-19T19:31:51.482Z,83.13
2023-03-19T19:34:18.701Z,83.13
2023-03-19T19:36:45.875Z,84.08
2023-03-19T19:39:13.225Z,84.64
2023-03-19T19:41:40.980Z,85.76
2023-03-19T19:44:18.789Z,85.80
2023-03-19T19:46:45.811Z,86.03
2023-03-19T19:49:14.520Z,85.24
2023-03-19T19:51:41.518Z,85.81
2023-03-19T19:54:08.716Z,86.03
2023-03-19T19:56:35.773Z,85.78
2023-03-19T19:59:06.574Z,85.87
2023-03-19T20:01:33.539Z,85.54
2023-03-19T20:04:00.868Z,85.45
2023-03-19T20:06:28.033Z,85.84
2023-03-19T20:08:55.262Z,86.40
2023-03-19T20:11:24.384Z,86.88
2023-03-19T20:13:55.573Z,87.26
2023-03-19T20:16:26.791Z,87.86
2023-03-19T20:18:55.128Z,87.87
2023-03-19T20:21:23.002Z,89.49
2023-03-19T20:23:53.182Z,90.05
2023-03-19T20:26:22.760Z,90.22
2023-03-19T20:28:51.128Z,90.69
2023-03-19T20:31:31.148Z,90.85
2023-03-19T20:33:58.713Z,90.81
2023-03-19T20:36:26.806Z,91.18
2023-03-19T20:38:54.306Z,90.66
2023-03-19T20:41:29.375Z,89.36
2023-03-19T20:43:57.034Z,89.35
2023-03-19T20:46:24.815Z,88.73
2023-03-19T20:48:52.055Z,88.13
2023-03-19T20:51:22.794Z,88.01
2023-03-19T20:53:51.574Z,87.46
2023-03-19T20:56:22.374Z,86.95
2023-03-19T20:58:49.933Z,86.41
2023-03-19T21:01:17.994Z,86.55
2023-03-19T21:03:45.376Z,86.26
2023-03-19T21:06:19.275Z,86.54
2023-03-19T21:08:54.571Z,86.40
2023-03-19T21:11:23.272Z,86.24
2023-03-19T21:13:52.832Z,86.26
2023-03-19T21:16:23.892Z,86.26
2023-03-19T21:18:51.991Z,85.98
2023-03-19T21:21:27.211Z,85.43
2023-03-19T21:23:59.362Z,85.34
2023-03-19T21:26:26.414Z,84.95
2023-03-19T21:29:04.377Z,84.84
2023-03-19T21:31:31.371Z,84.81
2023-03-19T21:33:59.424Z,85.13
2023-03-19T21:36:27.667Z,84.99
2023-03-19T21:38:54.841Z,85.14
2023-03-19T21:41:26.106Z,85.34
2023-03-19T21:43:59.895Z,84.90
2023-03-19T21:46:29.723Z,84.42
2023-03-19T21:48:58.269Z,84.09
2023-03-19T21:51:27.120Z,83.57
2023-03-19T21:53:54.122Z,83.52
2023-03-19T21:56:34.163Z,82.28
2023-03-19T21:59:04.488Z,81.62
2023-03-19T22:01:32.189Z,80.80
2023-03-19T22:03:59.120Z,79.82
2023-03-19T22:06:26.362Z,79.05
2023-03-19T22:08:54.275Z,78.40
2023-03-19T22:11:26.207Z,77.99
2023-03-19T22:13:53.759Z,77.67
2023-03-19T22:16:24.207Z,77.55
2023-03-19T22:18:52.582Z,77.82
2023-03-19T22:21:22.775Z,77.61
2023-03-19T22:23:50.971Z,77.48
2023-03-19T22:26:39.115Z,76.90
2023-03-19T22:29:24.601Z,76.73
2023-03-19T22:31:53.866Z,76.05
2023-03-19T22:34:24.091Z,75.74
2023-03-19T22:36:52.667Z,75.30
2023-03-19T22:39:19.692Z,74.68
2023-03-19T22:41:48.436Z,73.95
2023-03-19T22:44:28.794Z,73.74
2023-03-19T22:46:58.605Z,72.81
2023-03-19T22:49:26.567Z,72.24
2023-03-19T22:51:53.858Z,71.83
2023-03-19T22:54:20.820Z,72.07
2023-03-19T22:56:48.011Z,71.68
2023-03-19T22:59:14.862Z,71.56
2023-03-19T23:01:46.404Z,71.41
2023-03-19T23:04:23.719Z,70.84
2023-03-19T23:06:52.679Z,70.76
2023-03-19T23:09:23.165Z,70.45
2023-03-19T23:11:51.649Z,70.27
2023-03-19T23:14:29.214Z,70.47
2023-03-19T23:17:14.584Z,69.89
2023-03-19T23:19:41.484Z,69.51
2023-03-19T23:22:15.166Z,69.19
2023-03-19T23:24:42.414Z,68.33
2023-03-19T23:27:22.969Z,67.83
2023-03-19T23:29:50.045Z,67.43
2023-03-19T23:32:17.402Z,66.57
2023-03-19T23:34:57.171Z,66.03
2023-03-19T23:37:27.393Z,66.02
2023-03-19T23:39:54.277Z,65.65
2023-03-19T23:42:28.705Z,65.81
2023-03-19T23:44:59.101Z,65.31
2023-03-19T23:47:28.961Z,65.50
2023-03-19T23:49:56.418Z,65.03
2023-03-19T23:52:23.538Z,64.09
2023-03-19T23:54:50.872Z,62.98
2023-03-19T23:57:18.060Z,62.11
2023-03-19T23:59:48.188Z,61.52
